KLGC/LGC METAR and TAF weather

Enter ICAO airport designator
Station Type Date Time Source
KLGC METAR 2019/06/27 04:15 UTC NOAA

KLGC 270415Z AUTO 00000KT 10SM CLR 22/22 A3019 RMK AO2 T02210219


Station Type Date Time Source
KLGC Decoded METAR 2019/06/27 04:15 UTC NOAA

La Grange, Callaway Airport, GA, United States (KLGC) 33-00-32N 085-04-21W
Jun 27, 2019 - 12:15 AM EDT / 2019.06.27 0415 UTC
Wind: Calm:0
Visibility: 10 mile(s):0
Sky conditions: clear
Temperature: 71.8 F (22.1 C)
Dew Point: 71.4 F (21.9 C)
Relative Humidity: 98%
Pressure (altimeter): 30.19 in. Hg (1022 hPa)
ob: KLGC 270415Z AUTO 00000KT 10SM CLR 22/22 A3019 RMK AO2 T02210219
cycle: 4

Station Type Date Time Source
KLGC TAF UTC NOAA

Error!

Example: see airport list